createdAt,value
2022-12-18T00:00:31.075Z,-8.2
2022-12-18T00:10:31.758Z,-8.3
2022-12-18T00:20:32.219Z,-8.4
2022-12-18T00:30:33.264Z,-8.2
2022-12-18T00:40:34.065Z,-8.2
2022-12-18T00:50:34.541Z,-8.3
2022-12-18T01:10:35.510Z,-8.4
2022-12-18T01:20:36.135Z,-8.5
2022-12-18T01:30:36.251Z,-8.5
2022-12-18T01:40:36.452Z,-8.6
2022-12-18T01:50:36.813Z,-8.7
2022-12-18T02:00:37.608Z,-8.8
2022-12-18T02:20:38.638Z,-8.6
2022-12-18T02:30:39.584Z,-8.7
2022-12-18T02:40:40.531Z,-8.8
2022-12-18T02:50:40.722Z,-8.9
2022-12-18T03:00:41.676Z,-8.7
2022-12-18T03:10:42.600Z,-8.7
2022-12-18T03:20:43.098Z,-8.6
2022-12-18T03:30:43.372Z,-9
2022-12-18T03:40:44.218Z,-9.3
2022-12-18T03:50:45.181Z,-9.4
2022-12-18T04:00:45.603Z,-9.2
2022-12-18T04:10:46.418Z,-9.2
2022-12-18T04:20:47.082Z,-9.3
2022-12-18T04:30:48.074Z,-9.5
2022-12-18T04:40:48.076Z,-9.6
2022-12-18T05:00:48.436Z,-9.4
2022-12-18T05:20:49.842Z,-8.6
2022-12-18T05:30:50.539Z,-8.5
2022-12-18T05:40:51.249Z,-8.7
2022-12-18T05:50:51.931Z,-9.2
2022-12-18T06:00:52.876Z,-9.6
2022-12-18T06:40:55.593Z,-9.9
2022-12-18T06:50:55.726Z,-9.9
2022-12-18T07:10:57.418Z,-9.9
2022-12-18T07:20:57.779Z,-9.8
2022-12-18T07:50:59.913Z,-9.5
2022-12-18T08:11:00.832Z,-9.4
2022-12-18T08:31:02.555Z,-9.1
2022-12-18T08:41:03.093Z,-8.9
2022-12-18T09:01:03.929Z,-8.3
2022-12-18T09:11:04.921Z,-7.9
2022-12-18T09:21:05.701Z,-7.3
2022-12-18T09:31:06.825Z,-7.1
2022-12-18T10:01:08.785Z,-5.6
2022-12-18T10:11:09.791Z,-5.1
2022-12-18T10:51:13.584Z,-4.5
2022-12-18T11:01:14.023Z,-4.2
2022-12-18T11:21:14.572Z,-3.6
2022-12-18T11:41:16.037Z,-3.1
2022-12-18T11:51:16.375Z,-3
2022-12-18T12:01:17.400Z,-2.9
2022-12-18T12:11:17.456Z,-2.6
2022-12-18T12:21:18.354Z,-2.4
2022-12-18T12:31:19.309Z,-2.2
2022-12-18T12:41:19.601Z,-2
2022-12-18T12:51:20.497Z,-1.9
2022-12-18T13:01:23.500Z,-1.8
2022-12-18T13:11:20.892Z,-1.7
2022-12-18T13:21:22.068Z,-1.6
2022-12-18T13:31:22.727Z,-1.5
2022-12-18T13:41:23.114Z,-1.5
2022-12-18T13:51:23.768Z,-1.5
2022-12-18T14:01:24.570Z,-1.5
2022-12-18T14:11:26.722Z,-1.5
2022-12-18T14:21:25.956Z,-1.5
2022-12-18T14:41:26.730Z,-1.5
2022-12-18T14:51:27.482Z,-1.5
2022-12-18T15:11:28.762Z,-1.5
2022-12-18T15:21:29.527Z,-1.5
2022-12-18T15:31:30.089Z,-1.5
2022-12-18T15:41:30.798Z,-1.5
2022-12-18T15:51:31.613Z,-1.5
2022-12-18T16:11:32.998Z,-1.4
2022-12-18T16:31:34.483Z,-1.2
2022-12-18T16:41:34.577Z,-1.2
2022-12-18T16:51:35.090Z,-1.2
2022-12-18T17:01:35.293Z,-1.1
2022-12-18T17:11:35.475Z,-1
2022-12-18T17:21:36.292Z,-0.9
2022-12-18T17:31:36.805Z,-0.9
2022-12-18T17:41:37.335Z,-0.8
2022-12-18T17:51:37.625Z,-1
2022-12-18T18:01:43.933Z,-1.2
2022-12-18T18:11:38.500Z,-1.2
2022-12-18T18:21:39.077Z,-1.2
2022-12-18T18:31:40.790Z,-1.1
2022-12-18T18:51:40.252Z,-0.8
2022-12-18T19:01:40.717Z,-0.5
2022-12-18T19:11:41.497Z,-0.2
2022-12-18T19:21:42.333Z,0
2022-12-18T19:31:42.996Z,0.1
2022-12-18T19:41:43.801Z,0.3
2022-12-18T19:51:44.144Z,0.3
2022-12-18T20:01:44.808Z,0.3
2022-12-18T20:11:45.356Z,0.3
2022-12-18T20:31:47.171Z,0.5
2022-12-18T20:41:48.196Z,0.5
2022-12-18T20:51:49.266Z,0.5
2022-12-18T21:01:50.087Z,0.6
2022-12-18T21:11:50.413Z,0.6
2022-12-18T21:21:50.888Z,0.5
2022-12-18T21:31:51.557Z,0.4
2022-12-18T21:41:52.020Z,0.5
2022-12-18T21:51:52.576Z,0.4
2022-12-18T22:01:53.074Z,0.4
2022-12-18T22:11:54.021Z,0.3
2022-12-18T22:21:54.943Z,0.4
2022-12-18T22:31:55.318Z,0.3
2022-12-18T22:41:56.275Z,0.4
2022-12-18T22:51:57.320Z,0.4
2022-12-18T23:01:58.899Z,0.5
2022-12-18T23:21:59.563Z,0.6
2022-12-18T23:32:00.363Z,0.6
2022-12-18T23:42:01.297Z,0.6
2022-12-18T23:52:01.693Z,0.6
